sensor_id;sensor_type;location;lat;lon;timestamp;pressure;altitude;pressure_sealevel;temperature;humidity
46015;BME280;36844;51.898;-0.874;2023-08-07T00:01:32;100869.63;;;18.69;
46015;BME280;36844;51.898;-0.874;2023-08-07T00:03:57;100866.13;;;18.76;
46015;BME280;36844;51.898;-0.874;2023-08-07T00:06:22;100875.34;;;18.82;
46015;BME280;36844;51.898;-0.874;2023-08-07T00:08:48;100876.13;;;18.79;
46015;BME280;36844;51.898;-0.874;2023-08-07T00:11:13;100876.88;;;18.83;
46015;BME280;36844;51.898;-0.874;2023-08-07T00:13:38;100884.59;;;18.85;
46015;BME280;36844;51.898;-0.874;2023-08-07T00:16:04;100880.75;;;18.78;
46015;BME280;36844;51.898;-0.874;2023-08-07T00:18:29;100884.63;;;18.81;
46015;BME280;36844;51.898;-0.874;2023-08-07T00:20:55;100892.31;;;18.83;
46015;BME280;36844;51.898;-0.874;2023-08-07T00:23:20;100867.28;;;18.68;
46015;BME280;36844;51.898;-0.874;2023-08-07T00:25:45;100872.31;;;18.73;
46015;BME280;36844;51.898;-0.874;2023-08-07T00:28:11;100891.16;;;18.80;
46015;BME280;36844;51.898;-0.874;2023-08-07T00:30:36;100869.19;;;18.71;
46015;BME280;36844;51.898;-0.874;2023-08-07T00:33:01;100880.75;;;18.78;
46015;BME280;36844;51.898;-0.874;2023-08-07T00:35:26;100875.38;;;18.71;
46015;BME280;36844;51.898;-0.874;2023-08-07T00:37:52;100878.84;;;18.72;
46015;BME280;36844;51.898;-0.874;2023-08-07T00:40:17;100855.72;;;18.64;
46015;BME280;36844;51.898;-0.874;2023-08-07T00:42:43;100873.47;;;18.68;
46015;BME280;36844;51.898;-0.874;2023-08-07T00:45:09;100873.09;;;18.66;
46015;BME280;36844;51.898;-0.874;2023-08-07T00:47:34;100885.38;;;18.74;
46015;BME280;36844;51.898;-0.874;2023-08-07T00:50:00;100861.53;;;18.66;
46015;BME280;36844;51.898;-0.874;2023-08-07T00:52:27;100868.44;;;18.67;
46015;BME280;36844;51.898;-0.874;2023-08-07T00:54:52;100870.41;;;18.66;
46015;BME280;36844;51.898;-0.874;2023-08-07T00:57:17;100878.06;;;18.71;
46015;BME280;36844;51.898;-0.874;2023-08-07T00:59:43;100868.06;;;18.65;
46015;BME280;36844;51.898;-0.874;2023-08-07T01:02:10;100862.28;;;18.63;
46015;BME280;36844;51.898;-0.874;2023-08-07T01:04:35;100867.72;;;18.66;
46015;BME280;36844;51.898;-0.874;2023-08-07T01:07:01;100871.91;;;18.64;
46015;BME280;36844;51.898;-0.874;2023-08-07T01:09:26;100865.75;;;18.60;
46015;BME280;36844;51.898;-0.874;2023-08-07T01:12:15;100877.31;;;18.67;
46015;BME280;36844;51.898;-0.874;2023-08-07T01:15:12;100886.97;;;18.65;
46015;BME280;36844;51.898;-0.874;2023-08-07T01:17:38;100878.47;;;18.63;
46015;BME280;36844;51.898;-0.874;2023-08-07T01:20:04;100877.31;;;18.60;
46015;BME280;36844;51.898;-0.874;2023-08-07T01:22:30;100874.63;;;18.60;
46015;BME280;36844;51.898;-0.874;2023-08-07T01:24:55;100869.63;;;18.59;
46015;BME280;36844;51.898;-0.874;2023-08-07T01:30:09;100873.50;;;18.58;
46015;BME280;36844;51.898;-0.874;2023-08-07T01:35:36;100872.69;;;18.61;
46015;BME280;36844;51.898;-0.874;2023-08-07T01:38:05;100873.84;;;18.60;
46015;BME280;36844;51.898;-0.874;2023-08-07T01:40:30;100865.75;;;18.60;
46015;BME280;36844;51.898;-0.874;2023-08-07T01:42:56;100853.44;;;18.52;
46015;BME280;36844;51.898;-0.874;2023-08-07T01:45:23;100862.31;;;18.59;
46015;BME280;36844;51.898;-0.874;2023-08-07T01:47:48;100859.63;;;18.56;
46015;BME280;36844;51.898;-0.874;2023-08-07T01:50:14;100853.84;;;18.54;
46015;BME280;36844;51.898;-0.874;2023-08-07T01:52:39;100853.44;;;18.52;
46015;BME280;36844;51.898;-0.874;2023-08-07T01:55:04;100863.06;;;18.53;
46015;BME280;36844;51.898;-0.874;2023-08-07T01:57:30;100849.22;;;18.51;
46015;BME280;36844;51.898;-0.874;2023-08-07T01:59:56;100861.13;;;18.57;
46015;BME280;36844;51.898;-0.874;2023-08-07T02:02:21;100848.47;;;18.47;
46015;BME280;36844;51.898;-0.874;2023-08-07T02:04:46;100859.22;;;18.54;
46015;BME280;36844;51.898;-0.874;2023-08-07T02:07:12;100856.16;;;18.48;
46015;BME280;36844;51.898;-0.874;2023-08-07T02:09:37;100858.84;;;18.52;
46015;BME280;36844;51.898;-0.874;2023-08-07T02:12:03;100859.22;;;18.54;
46015;BME280;36844;51.898;-0.874;2023-08-07T02:14:28;100855.78;;;18.50;
46015;BME280;36844;51.898;-0.874;2023-08-07T02:16:53;100855.38;;;18.48;
46015;BME280;36844;51.898;-0.874;2023-08-07T02:19:19;100852.31;;;18.46;
46015;BME280;36844;51.898;-0.874;2023-08-07T02:21:44;100856.16;;;18.45;
46015;BME280;36844;51.898;-0.874;2023-08-07T02:24:09;100853.88;;;18.43;
46015;BME280;36844;51.898;-0.874;2023-08-07T02:26:35;100855.41;;;18.41;
46015;BME280;36844;51.898;-0.874;2023-08-07T02:29:00;100849.22;;;18.40;
46015;BME280;36844;51.898;-0.874;2023-08-07T02:31:25;100858.09;;;18.44;
46015;BME280;36844;51.898;-0.874;2023-08-07T02:33:51;100861.56;;;18.48;
46015;BME280;36844;51.898;-0.874;2023-08-07T02:36:16;100854.63;;;18.44;
46015;BME280;36844;51.898;-0.874;2023-08-07T02:38:41;100844.22;;;18.39;
46015;BME280;36844;51.898;-0.874;2023-08-07T02:41:06;100853.09;;;18.43;
46015;BME280;36844;51.898;-0.874;2023-08-07T02:43:32;100863.47;;;18.48;
46015;BME280;36844;51.898;-0.874;2023-08-07T02:45:59;100859.25;;;18.47;
46015;BME280;36844;51.898;-0.874;2023-08-07T02:48:24;100859.66;;;18.42;
46015;BME280;36844;51.898;-0.874;2023-08-07T02:50:50;100854.63;;;18.40;
46015;BME280;36844;51.898;-0.874;2023-08-07T02:53:16;100860.41;;;18.39;
46015;BME280;36844;51.898;-0.874;2023-08-07T02:55:43;100855.03;;;18.39;
46015;BME280;36844;51.898;-0.874;2023-08-07T02:58:08;100855.41;;;18.37;
46015;BME280;36844;51.898;-0.874;2023-08-07T03:00:34;100866.19;;;18.41;
46015;BME280;36844;51.898;-0.874;2023-08-07T03:03:00;100863.09;;;18.39;
46015;BME280;36844;51.898;-0.874;2023-08-07T03:05:25;100841.56;;;18.32;
46015;BME280;36844;51.898;-0.874;2023-08-07T03:07:51;100847.31;;;18.34;
46015;BME280;36844;51.898;-0.874;2023-08-07T03:10:16;100863.88;;;18.39;
46015;BME280;36844;51.898;-0.874;2023-08-07T03:12:41;100856.56;;;18.33;
46015;BME280;36844;51.898;-0.874;2023-08-07T03:15:07;100860.00;;;18.40;
46015;BME280;36844;51.898;-0.874;2023-08-07T03:17:32;100863.13;;;18.35;
46015;BME280;36844;51.898;-0.874;2023-08-07T03:19:57;100874.69;;;18.39;
46015;BME280;36844;51.898;-0.874;2023-08-07T03:22:23;100864.28;;;18.31;
46015;BME280;36844;51.898;-0.874;2023-08-07T03:24:49;100858.50;;;18.25;
46015;BME280;36844;51.898;-0.874;2023-08-07T03:27:14;100857.34;;;18.30;
46015;BME280;36844;51.898;-0.874;2023-08-07T03:29:40;100872.38;;;18.38;
46015;BME280;36844;51.898;-0.874;2023-08-07T03:32:06;100870.81;;;18.37;
46015;BME280;36844;51.898;-0.874;2023-08-07T03:34:31;100866.19;;;18.34;
46015;BME280;36844;51.898;-0.874;2023-08-07T03:36:56;100855.44;;;18.27;
46015;BME280;36844;51.898;-0.874;2023-08-07T03:39:24;100843.88;;;18.23;
46015;BME280;36844;51.898;-0.874;2023-08-07T03:41:49;100868.50;;;18.35;
46015;BME280;36844;51.898;-0.874;2023-08-07T03:44:15;100858.13;;;18.30;
46015;BME280;36844;51.898;-0.874;2023-08-07T03:46:40;100856.97;;;18.28;
46015;BME280;36844;51.898;-0.874;2023-08-07T03:49:05;100852.75;;;18.23;
46015;BME280;36844;51.898;-0.874;2023-08-07T03:51:31;100857.72;;;18.28;
46015;BME280;36844;51.898;-0.874;2023-08-07T03:53:57;100851.94;;;18.26;
46015;BME280;36844;51.898;-0.874;2023-08-07T03:56:22;100857.72;;;18.32;
46015;BME280;36844;51.898;-0.874;2023-08-07T03:58:48;100854.66;;;18.26;
46015;BME280;36844;51.898;-0.874;2023-08-07T04:01:15;100845.44;;;18.24;
46015;BME280;36844;51.898;-0.874;2023-08-07T04:03:40;100846.56;;;18.23;
46015;BME280;36844;51.898;-0.874;2023-08-07T04:06:06;100844.66;;;18.27;
46015;BME280;36844;51.898;-0.874;2023-08-07T04:08:31;100846.16;;;18.21;
46015;BME280;36844;51.898;-0.874;2023-08-07T04:11:00;100834.25;;;18.18;
46015;BME280;36844;51.898;-0.874;2023-08-07T04:13:27;100855.00;;;18.25;
46015;BME280;36844;51.898;-0.874;2023-08-07T04:15:52;100858.13;;;18.27;
46015;BME280;36844;51.898;-0.874;2023-08-07T04:18:18;100856.59;;;18.19;
46015;BME280;36844;51.898;-0.874;2023-08-07T04:20:48;100845.03;;;18.15;
46015;BME280;36844;51.898;-0.874;2023-08-07T04:23:14;100846.16;;;18.14;
46015;BME280;36844;51.898;-0.874;2023-08-07T04:25:40;100853.09;;;18.22;
46015;BME280;36844;51.898;-0.874;2023-08-07T04:28:05;100847.38;;;18.13;
46015;BME280;36844;51.898;-0.874;2023-08-07T04:30:31;100845.41;;;18.13;
46015;BME280;36844;51.898;-0.874;2023-08-07T04:32:56;100850.06;;;18.20;
46015;BME280;36844;51.898;-0.874;2023-08-07T04:35:21;100862.75;;;18.23;
46015;BME280;36844;51.898;-0.874;2023-08-07T04:37:47;100858.50;;;18.22;
46015;BME280;36844;51.898;-0.874;2023-08-07T04:40:12;100851.97;;;18.16;
46015;BME280;36844;51.898;-0.874;2023-08-07T04:42:38;100850.06;;;18.13;
46015;BME280;36844;51.898;-0.874;2023-08-07T04:45:03;100858.13;;;18.16;
46015;BME280;36844;51.898;-0.874;2023-08-07T04:47:29;100848.50;;;18.12;
46015;BME280;36844;51.898;-0.874;2023-08-07T04:49:54;100845.03;;;18.11;
46015;BME280;36844;51.898;-0.874;2023-08-07T04:52:19;100843.13;;;18.12;
46015;BME280;36844;51.898;-0.874;2023-08-07T04:54:44;100844.25;;;18.07;
46015;BME280;36844;51.898;-0.874;2023-08-07T04:57:10;100842.34;;;18.04;
46015;BME280;36844;51.898;-0.874;2023-08-07T04:59:35;100853.13;;;18.08;
46015;BME280;36844;51.898;-0.874;2023-08-07T05:02:01;100851.19;;;18.08;
46015;BME280;36844;51.898;-0.874;2023-08-07T05:04:26;100855.03;;;18.07;
46015;BME280;36844;51.898;-0.874;2023-08-07T05:06:51;100841.19;;;17.98;
46015;BME280;36844;51.898;-0.874;2023-08-07T05:09:16;100864.28;;;18.10;
46015;BME280;36844;51.898;-0.874;2023-08-07T05:11:42;100877.00;;;18.13;
46015;BME280;36844;51.898;-0.874;2023-08-07T05:14:07;100867.38;;;18.12;
46015;BME280;36844;51.898;-0.874;2023-08-07T05:16:32;100867.00;;;18.10;
46015;BME280;36844;51.898;-0.874;2023-08-07T05:18:58;100865.47;;;18.09;
46015;BME280;36844;51.898;-0.874;2023-08-07T05:21:23;100867.00;;;18.10;
46015;BME280;36844;51.898;-0.874;2023-08-07T05:23:48;100865.03;;;18.07;
46015;BME280;36844;51.898;-0.874;2023-08-07T05:26:18;100862.34;;;18.07;
46015;BME280;36844;51.898;-0.874;2023-08-07T05:28:43;100863.13;;;18.11;
46015;BME280;36844;51.898;-0.874;2023-08-07T05:31:08;100854.25;;;18.07;
46015;BME280;36844;51.898;-0.874;2023-08-07T05:33:34;100846.97;;;18.00;
46015;BME280;36844;51.898;-0.874;2023-08-07T05:35:59;100847.75;;;18.01;
46015;BME280;36844;51.898;-0.874;2023-08-07T05:38:24;100860.03;;;18.05;
46015;BME280;36844;51.898;-0.874;2023-08-07T05:40:50;100858.88;;;18.03;
46015;BME280;36844;51.898;-0.874;2023-08-07T05:43:16;100855.81;;;18.01;
46015;BME280;36844;51.898;-0.874;2023-08-07T05:45:42;100878.16;;;18.08;
46015;BME280;36844;51.898;-0.874;2023-08-07T05:48:08;100879.72;;;18.16;
46015;BME280;36844;51.898;-0.874;2023-08-07T05:50:34;100865.44;;;18.16;
46015;BME280;36844;51.898;-0.874;2023-08-07T05:52:59;100875.44;;;18.19;
46015;BME280;36844;51.898;-0.874;2023-08-07T05:55:25;100863.88;;;18.18;
46015;BME280;36844;51.898;-0.874;2023-08-07T05:57:50;100862.34;;;18.17;
46015;BME280;36844;51.898;-0.874;2023-08-07T06:00:16;100874.66;;;18.29;
46015;BME280;36844;51.898;-0.874;2023-08-07T06:02:44;100873.88;;;18.28;
46015;BME280;36844;51.898;-0.874;2023-08-07T06:05:09;100877.34;;;18.32;
46015;BME280;36844;51.898;-0.874;2023-08-07T06:07:37;100885.06;;;18.34;
46015;BME280;36844;51.898;-0.874;2023-08-07T06:10:03;100873.88;;;18.25;
46015;BME280;36844;51.898;-0.874;2023-08-07T06:12:28;100883.16;;;18.31;
46015;BME280;36844;51.898;-0.874;2023-08-07T06:14:53;100875.09;;;18.27;
46015;BME280;36844;51.898;-0.874;2023-08-07T06:17:19;100888.56;;;18.31;
46015;BME280;36844;51.898;-0.874;2023-08-07T06:19:44;100877.78;;;18.24;
46015;BME280;36844;51.898;-0.874;2023-08-07T06:22:09;100880.06;;;18.29;
46015;BME280;36844;51.898;-0.874;2023-08-07T06:24:34;100882.38;;;18.30;
46015;BME280;36844;51.898;-0.874;2023-08-07T06:27:02;100876.22;;;18.26;
46015;BME280;36844;51.898;-0.874;2023-08-07T06:29:27;100881.25;;;18.28;
46015;BME280;36844;51.898;-0.874;2023-08-07T06:31:52;100891.59;;;18.36;
46015;BME280;36844;51.898;-0.874;2023-08-07T06:34:18;100883.94;;;18.31;
46015;BME280;36844;51.898;-0.874;2023-08-07T06:36:43;100881.59;;;18.33;
46015;BME280;36844;51.898;-0.874;2023-08-07T06:39:08;100883.16;;;18.31;
46015;BME280;36844;51.898;-0.874;2023-08-07T06:41:35;100883.94;;;18.35;
46015;BME280;36844;51.898;-0.874;2023-08-07T06:44:00;100876.59;;;18.32;
46015;BME280;36844;51.898;-0.874;2023-08-07T06:46:26;100878.56;;;18.31;
46015;BME280;36844;51.898;-0.874;2023-08-07T06:48:53;100893.94;;;18.38;
46015;BME280;36844;51.898;-0.874;2023-08-07T06:51:18;100901.66;;;18.39;
46015;BME280;36844;51.898;-0.874;2023-08-07T06:53:43;100908.19;;;18.45;
46015;BME280;36844;51.898;-0.874;2023-08-07T06:56:09;100892.38;;;18.37;
46015;BME280;36844;51.898;-0.874;2023-08-07T06:58:34;100903.16;;;18.44;
46015;BME280;36844;51.898;-0.874;2023-08-07T07:00:59;100890.06;;;18.39;
46015;BME280;36844;51.898;-0.874;2023-08-07T07:03:25;100893.94;;;18.48;
46015;BME280;36844;51.898;-0.874;2023-08-07T07:05:50;100876.97;;;18.41;
46015;BME280;36844;51.898;-0.874;2023-08-07T07:08:15;100894.31;;;18.50;
46015;BME280;36844;51.898;-0.874;2023-08-07T07:10:41;100892.00;;;18.49;
46015;BME280;36844;51.898;-0.874;2023-08-07T07:13:06;100880.44;;;18.45;
46015;BME280;36844;51.898;-0.874;2023-08-07T07:15:33;100881.97;;;18.46;
46015;BME280;36844;51.898;-0.874;2023-08-07T07:17:58;100875.44;;;18.47;
46015;BME280;36844;51.898;-0.874;2023-08-07T07:20:25;100870.78;;;18.44;
46015;BME280;36844;51.898;-0.874;2023-08-07T07:22:51;100871.19;;;18.46;
46015;BME280;36844;51.898;-0.874;2023-08-07T07:25:17;100876.97;;;18.55;
46015;BME280;36844;51.898;-0.874;2023-08-07T07:27:42;100870.81;;;18.51;
46015;BME280;36844;51.898;-0.874;2023-08-07T07:30:08;100877.72;;;18.52;
46015;BME280;36844;51.898;-0.874;2023-08-07T07:32:33;100876.19;;;18.54;
46015;BME280;36844;51.898;-0.874;2023-08-07T07:34:59;100875.81;;;18.56;
46015;BME280;36844;51.898;-0.874;2023-08-07T07:37:24;100871.16;;;18.53;
46015;BME280;36844;51.898;-0.874;2023-08-07T07:39:49;100869.25;;;18.50;
46015;BME280;36844;51.898;-0.874;2023-08-07T07:42:14;100885.41;;;18.57;
46015;BME280;36844;51.898;-0.874;2023-08-07T07:44:40;100873.50;;;18.54;
46015;BME280;36844;51.898;-0.874;2023-08-07T07:47:06;100880.78;;;18.64;
46015;BME280;36844;51.898;-0.874;2023-08-07T07:49:32;100889.28;;;18.66;
46015;BME280;36844;51.898;-0.874;2023-08-07T07:51:58;100876.19;;;18.61;
46015;BME280;36844;51.898;-0.874;2023-08-07T07:54:23;100879.66;;;18.58;
46015;BME280;36844;51.898;-0.874;2023-08-07T07:56:49;100895.81;;;18.72;
46015;BME280;36844;51.898;-0.874;2023-08-07T07:59:14;100901.56;;;18.74;
46015;BME280;36844;51.898;-0.874;2023-08-07T08:01:39;100894.25;;;18.75;
46015;BME280;36844;51.898;-0.874;2023-08-07T08:04:05;100895.00;;;18.79;
46015;BME280;36844;51.898;-0.874;2023-08-07T08:06:31;100885.38;;;18.71;
46015;BME280;36844;51.898;-0.874;2023-08-07T08:08:56;100901.19;;;18.83;
46015;BME280;36844;51.898;-0.874;2023-08-07T08:11:22;100890.78;;;18.82;
46015;BME280;36844;51.898;-0.874;2023-08-07T08:13:47;100898.09;;;18.85;
46015;BME280;36844;51.898;-0.874;2023-08-07T08:16:13;100896.16;;;18.82;
46015;BME280;36844;51.898;-0.874;2023-08-07T08:18:38;100890.06;;;18.74;
46015;BME280;36844;51.898;-0.874;2023-08-07T08:21:04;100896.59;;;18.77;
46015;BME280;36844;51.898;-0.874;2023-08-07T08:23:29;100890.78;;;18.74;
46015;BME280;36844;51.898;-0.874;2023-08-07T08:25:54;100892.31;;;18.79;
46015;BME280;36844;51.898;-0.874;2023-08-07T08:28:20;100896.91;;;18.82;
46015;BME280;36844;51.898;-0.874;2023-08-07T08:30:45;100900.38;;;18.86;
46015;BME280;36844;51.898;-0.874;2023-08-07T08:33:10;100902.31;;;18.89;
46015;BME280;36844;51.898;-0.874;2023-08-07T08:35:40;100908.09;;;18.91;
46015;BME280;36844;51.898;-0.874;2023-08-07T08:38:06;100882.28;;;18.83;
46015;BME280;36844;51.898;-0.874;2023-08-07T08:40:31;100894.59;;;18.91;
46015;BME280;36844;51.898;-0.874;2023-08-07T08:42:59;100890.75;;;18.85;
46015;BME280;36844;51.898;-0.874;2023-08-07T08:45:26;100883.44;;;18.86;
46015;BME280;36844;51.898;-0.874;2023-08-07T08:47:54;100895.34;;;18.95;
46015;BME280;36844;51.898;-0.874;2023-08-07T08:50:21;100896.53;;;18.91;
46015;BME280;36844;51.898;-0.874;2023-08-07T08:52:46;100880.72;;;18.82;
46015;BME280;36844;51.898;-0.874;2023-08-07T08:55:13;100900.00;;;18.95;
46015;BME280;36844;51.898;-0.874;2023-08-07T08:57:39;100890.75;;;18.89;
46015;BME280;36844;51.898;-0.874;2023-08-07T09:00:06;100895.34;;;18.92;
46015;BME280;36844;51.898;-0.874;2023-08-07T09:03:01;100897.31;;;18.91;
46015;BME280;36844;51.898;-0.874;2023-08-07T09:05:27;100869.59;;;18.77;
46015;BME280;36844;51.898;-0.874;2023-08-07T09:07:53;100886.88;;;18.86;
46015;BME280;36844;51.898;-0.874;2023-08-07T09:10:19;100886.88;;;18.86;
46015;BME280;36844;51.898;-0.874;2023-08-07T09:13:11;100880.75;;;18.86;
46015;BME280;36844;51.898;-0.874;2023-08-07T09:15:35;100893.44;;;18.92;
46015;BME280;36844;51.898;-0.874;2023-08-07T09:18:03;100888.06;;;18.85;
46015;BME280;36844;51.898;-0.874;2023-08-07T09:20:32;100896.53;;;18.91;
46015;BME280;36844;51.898;-0.874;2023-08-07T09:22:59;100893.44;;;18.92;
46015;BME280;36844;51.898;-0.874;2023-08-07T09:25:29;100883.03;;;18.87;
46015;BME280;36844;51.898;-0.874;2023-08-07T09:27:55;100873.03;;;18.84;
46015;BME280;36844;51.898;-0.874;2023-08-07T09:30:21;100885.34;;;18.92;
46015;BME280;36844;51.898;-0.874;2023-08-07T09:32:49;100878.44;;;18.84;
46015;BME280;36844;51.898;-0.874;2023-08-07T09:35:15;100866.50;;;18.78;
46015;BME280;36844;51.898;-0.874;2023-08-07T09:37:43;100893.84;;;18.91;
46015;BME280;36844;51.898;-0.874;2023-08-07T09:40:08;100887.28;;;18.88;
46015;BME280;36844;51.898;-0.874;2023-08-07T09:42:36;100881.50;;;18.86;
46015;BME280;36844;51.898;-0.874;2023-08-07T09:45:18;100876.09;;;18.83;
46015;BME280;36844;51.898;-0.874;2023-08-07T09:47:44;100868.81;;;18.80;
46015;BME280;36844;51.898;-0.874;2023-08-07T09:50:15;100879.56;;;18.90;
46015;BME280;36844;51.898;-0.874;2023-08-07T09:52:41;100879.94;;;18.89;
46015;BME280;36844;51.898;-0.874;2023-08-07T09:55:07;100870.72;;;18.79;
46015;BME280;36844;51.898;-0.874;2023-08-07T09:57:32;100859.56;;;18.81;
46015;BME280;36844;51.898;-0.874;2023-08-07T09:59:59;100861.84;;;18.86;
46015;BME280;36844;51.898;-0.874;2023-08-07T10:02:25;100854.94;;;18.81;
46015;BME280;36844;51.898;-0.874;2023-08-07T10:04:51;100865.69;;;18.88;
46015;BME280;36844;51.898;-0.874;2023-08-07T10:07:19;100857.59;;;18.85;
46015;BME280;36844;51.898;-0.874;2023-08-07T10:09:45;100869.53;;;18.94;
46015;BME280;36844;51.898;-0.874;2023-08-07T10:12:11;100861.03;;;18.96;
46015;BME280;36844;51.898;-0.874;2023-08-07T10:14:38;100844.88;;;18.89;
46015;BME280;36844;51.898;-0.874;2023-08-07T10:17:05;100844.88;;;18.89;
46015;BME280;36844;51.898;-0.874;2023-08-07T10:19:31;100837.94;;;18.91;
46015;BME280;36844;51.898;-0.874;2023-08-07T10:21:56;100847.16;;;18.90;
46015;BME280;36844;51.898;-0.874;2023-08-07T10:24:23;100851.78;;;19.00;
46015;BME280;36844;51.898;-0.874;2023-08-07T10:26:49;100834.06;;;18.92;
46015;BME280;36844;51.898;-0.874;2023-08-07T10:29:18;100856.78;;;19.02;
46015;BME280;36844;51.898;-0.874;2023-08-07T10:31:44;100846.72;;;19.02;
46015;BME280;36844;51.898;-0.874;2023-08-07T10:34:10;100831.34;;;18.92;
46015;BME280;36844;51.898;-0.874;2023-08-07T10:36:36;100842.88;;;19.03;
46015;BME280;36844;51.898;-0.874;2023-08-07T10:39:12;100833.66;;;18.97;
46015;BME280;36844;51.898;-0.874;2023-08-07T10:41:47;100840.56;;;19.05;
46015;BME280;36844;51.898;-0.874;2023-08-07T10:46:57;100823.63;;;18.98;
46015;BME280;36844;51.898;-0.874;2023-08-07T10:49:40;100832.47;;;19.02;
46015;BME280;36844;51.898;-0.874;2023-08-07T10:54:54;100839.41;;;19.03;
46015;BME280;36844;51.898;-0.874;2023-08-07T10:57:20;100833.63;;;19.08;
46015;BME280;36844;51.898;-0.874;2023-08-07T11:02:30;100828.22;;;19.08;
46015;BME280;36844;51.898;-0.874;2023-08-07T11:04:56;100828.22;;;19.08;
46015;BME280;36844;51.898;-0.874;2023-08-07T11:07:29;100822.03;;;19.07;
46015;BME280;36844;51.898;-0.874;2023-08-07T11:09:56;100827.06;;;19.09;
46015;BME280;36844;51.898;-0.874;2023-08-07T11:12:26;100831.25;;;19.10;
46015;BME280;36844;51.898;-0.874;2023-08-07T11:14:52;100811.31;;;18.93;
46015;BME280;36844;51.898;-0.874;2023-08-07T11:17:18;100800.50;;;18.90;
46015;BME280;36844;51.898;-0.874;2023-08-07T11:19:47;100806.69;;;18.90;
46015;BME280;36844;51.898;-0.874;2023-08-07T11:22:12;100817.44;;;19.01;
46015;BME280;36844;51.898;-0.874;2023-08-07T11:24:37;100816.63;;;19.07;
46015;BME280;36844;51.898;-0.874;2023-08-07T11:27:03;100813.56;;;19.02;
46015;BME280;36844;51.898;-0.874;2023-08-07T11:29:29;100824.75;;;19.04;
46015;BME280;36844;51.898;-0.874;2023-08-07T11:31:56;100820.13;;;19.04;
46015;BME280;36844;51.898;-0.874;2023-08-07T11:34:21;100822.06;;;19.04;
46015;BME280;36844;51.898;-0.874;2023-08-07T11:36:47;100816.66;;;19.00;
46015;BME280;36844;51.898;-0.874;2023-08-07T11:39:13;100830.88;;;19.11;
46015;BME280;36844;51.898;-0.874;2023-08-07T11:41:38;100824.72;;;19.07;
46015;BME280;36844;51.898;-0.874;2023-08-07T11:44:04;100812.78;;;19.01;
46015;BME280;36844;51.898;-0.874;2023-08-07T11:46:29;100828.97;;;19.12;
46015;BME280;36844;51.898;-0.874;2023-08-07T11:48:55;100830.47;;;19.13;
46015;BME280;36844;51.898;-0.874;2023-08-07T11:51:21;100812.38;;;19.06;
46015;BME280;36844;51.898;-0.874;2023-08-07T11:53:47;100801.25;;;19.01;
46015;BME280;36844;51.898;-0.874;2023-08-07T11:56:13;100818.50;;;19.14;
46015;BME280;36844;51.898;-0.874;2023-08-07T11:58:44;100815.81;;;19.14;
46015;BME280;36844;51.898;-0.874;2023-08-07T12:01:24;100812.75;;;19.15;
46015;BME280;36844;51.898;-0.874;2023-08-07T12:03:55;100814.66;;;19.15;
46015;BME280;36844;51.898;-0.874;2023-08-07T12:06:21;100804.66;;;19.15;
46015;BME280;36844;51.898;-0.874;2023-08-07T12:08:49;100793.88;;;19.08;
46015;BME280;36844;51.898;-0.874;2023-08-07T12:11:16;100803.47;;;19.16;
46015;BME280;36844;51.898;-0.874;2023-08-07T12:13:43;100777.69;;;19.01;
46015;BME280;36844;51.898;-0.874;2023-08-07T12:16:10;100790.38;;;19.11;
46015;BME280;36844;51.898;-0.874;2023-08-07T12:18:43;100795.38;;;19.16;
46015;BME280;36844;51.898;-0.874;2023-08-07T12:21:08;100791.94;;;19.12;
46015;BME280;36844;51.898;-0.874;2023-08-07T12:23:35;100788.00;;;19.17;
46015;BME280;36844;51.898;-0.874;2023-08-07T12:26:01;100783.09;;;19.08;
46015;BME280;36844;51.898;-0.874;2023-08-07T12:28:26;100786.88;;;19.18;
46015;BME280;36844;51.898;-0.874;2023-08-07T12:30:52;100784.56;;;19.16;
46015;BME280;36844;51.898;-0.874;2023-08-07T12:33:18;100754.94;;;19.02;
46015;BME280;36844;51.898;-0.874;2023-08-07T12:35:44;100777.66;;;19.12;
46015;BME280;36844;51.898;-0.874;2023-08-07T12:38:10;100782.63;;;19.17;
46015;BME280;36844;51.898;-0.874;2023-08-07T12:40:36;100768.75;;;19.15;
46015;BME280;36844;51.898;-0.874;2023-08-07T12:43:05;100784.94;;;19.18;
46015;BME280;36844;51.898;-0.874;2023-08-07T12:45:31;100762.59;;;19.14;
46015;BME280;36844;51.898;-0.874;2023-08-07T12:47:57;100756.47;;;19.07;
46015;BME280;36844;51.898;-0.874;2023-08-07T12:50:23;100764.94;;;19.12;
46015;BME280;36844;51.898;-0.874;2023-08-07T12:52:48;100780.31;;;19.19;
46015;BME280;36844;51.898;-0.874;2023-08-07T12:55:14;100783.00;;;19.22;
46015;BME280;36844;51.898;-0.874;2023-08-07T12:57:42;100767.63;;;19.16;
46015;BME280;36844;51.898;-0.874;2023-08-07T13:00:11;100781.03;;;19.23;
46015;BME280;36844;51.898;-0.874;2023-08-07T13:02:41;100782.19;;;19.25;
46015;BME280;36844;51.898;-0.874;2023-08-07T13:05:07;100775.63;;;19.26;
46015;BME280;36844;51.898;-0.874;2023-08-07T13:07:33;100768.72;;;19.22;
46015;BME280;36844;51.898;-0.874;2023-08-07T13:09:59;100769.50;;;19.22;
46015;BME280;36844;51.898;-0.874;2023-08-07T13:12:24;100750.22;;;19.17;
46015;BME280;36844;51.898;-0.874;2023-08-07T13:14:49;100750.97;;;19.17;
46015;BME280;36844;51.898;-0.874;2023-08-07T13:17:15;100770.25;;;19.26;
46015;BME280;36844;51.898;-0.874;2023-08-07T13:19:40;100755.25;;;19.18;
46015;BME280;36844;51.898;-0.874;2023-08-07T13:22:07;100767.88;;;19.28;
46015;BME280;36844;51.898;-0.874;2023-08-07T13:24:32;100754.81;;;19.23;
46015;BME280;36844;51.898;-0.874;2023-08-07T13:26:58;100762.13;;;19.26;
46015;BME280;36844;51.898;-0.874;2023-08-07T13:29:23;100743.28;;;19.19;
46015;BME280;36844;51.898;-0.874;2023-08-07T13:31:48;100761.75;;;19.28;
46015;BME280;36844;51.898;-0.874;2023-08-07T13:34:14;100752.88;;;19.24;
46015;BME280;36844;51.898;-0.874;2023-08-07T13:36:39;100780.59;;;19.35;
46015;BME280;36844;51.898;-0.874;2023-08-07T13:39:05;100756.34;;;19.28;
46015;BME280;36844;51.898;-0.874;2023-08-07T13:41:31;100764.38;;;19.35;